Time;durP1;ratioP1;P1;durP2;ratioP2;P2;SDS_P1;SDS_P2;PMS_P1;PMS_P2;Temp;Humidity;BMP_temperature;BMP_pressure;BME280_temperature;BME280_humidity;BME280_pressure;Samples;Min_cycle;Max_cycle;Signal;HPM_P1;HPM_P2
2023/05/20 00:01:57;;;;;;;12.40;4.53;;;;;;;-146.27;80.60;82882.41;5043353;28;20031;-74
2023/05/20 00:04:22;;;;;;;11.75;4.28;;;;;;;-146.27;80.44;82914.53;5061473;28;20036;-73
2023/05/20 00:06:48;;;;;;;6.68;4.03;;;;;;;-146.27;80.25;82936.66;5048445;28;20400;-75
2023/05/20 00:09:13;;;;;;;6.75;3.88;;;;;;;-146.27;80.34;82958.75;5034014;28;20029;-73
2023/05/20 00:11:38;;;;;;;4.88;3.70;;;;;;;-146.27;79.98;82968.78;5054004;28;20047;-72
2023/05/20 00:14:04;;;;;;;13.73;3.85;;;;;;;-146.27;81.00;82946.69;5060825;28;20025;-73
2023/05/20 00:16:29;;;;;;;7.97;3.85;;;;;;;-146.27;79.93;82956.75;5048032;28;20139;-73
2023/05/20 00:18:55;;;;;;;9.13;3.92;;;;;;;-146.27;80.81;82976.81;5050838;28;20024;-74
2023/05/20 00:21:21;;;;;;;10.05;4.50;;;;;;;-146.27;80.90;82978.84;5052186;28;20024;-74
2023/05/20 00:23:46;;;;;;;13.25;4.45;;;;;;;-146.27;81.45;82992.91;5052488;28;20389;-74
2023/05/20 00:26:11;;;;;;;12.82;4.18;;;;;;;-146.27;81.18;82980.84;5053089;28;20048;-74
2023/05/20 00:28:37;;;;;;;15.13;4.30;;;;;;;-146.27;80.76;83004.94;5046760;28;20021;-72
2023/05/20 00:31:03;;;;;;;11.70;4.85;;;;;;;-146.27;81.60;82970.81;5037899;28;20032;-73
2023/05/20 00:33:28;;;;;;;17.15;4.72;;;;;;;-146.27;82.32;83006.97;5053112;28;20036;-74
2023/05/20 00:35:54;;;;;;;10.05;4.18;;;;;;;-146.27;81.61;82980.84;5047099;28;20393;-73
2023/05/20 00:38:19;;;;;;;12.13;4.25;;;;;;;-146.27;82.35;82930.63;5044883;28;20619;-73
2023/05/20 00:40:45;;;;;;;12.65;4.88;;;;;;;-146.27;82.39;82994.91;5042851;28;20048;-73
2023/05/20 00:43:10;;;;;;;10.32;4.50;;;;;;;-146.27;82.06;83002.94;5046831;28;20120;-73
2023/05/20 00:45:36;;;;;;;9.27;4.45;;;;;;;-146.27;82.30;82996.91;5037253;28;20133;-74
2023/05/20 00:48:02;;;;;;;12.32;4.22;;;;;;;-146.27;82.36;82950.72;5047306;28;20428;-73
2023/05/20 00:50:28;;;;;;;11.55;4.68;;;;;;;-146.27;82.12;83010.97;5050527;28;20392;-74
2023/05/20 00:52:54;;;;;;;9.82;5.05;;;;;;;-146.27;82.63;83041.13;5041369;28;20017;-73
2023/05/20 00:55:20;;;;;;;11.63;4.15;;;;;;;-146.27;82.68;83023.03;5035748;28;20040;-72
2023/05/20 00:57:47;;;;;;;9.45;4.63;;;;;;;-146.27;83.36;83043.13;5033476;28;20028;-73
2023/05/20 01:00:13;;;;;;;11.10;4.45;;;;;;;-146.27;82.68;83019.03;5041771;28;20051;-73
2023/05/20 01:02:38;;;;;;;9.77;4.68;;;;;;;-146.27;82.58;83013.00;5048127;28;20025;-73
2023/05/20 01:05:04;;;;;;;11.35;4.72;;;;;;;-146.27;83.92;83073.25;5053324;28;20056;-74
2023/05/20 01:07:30;;;;;;;8.38;4.38;;;;;;;-146.27;83.83;83053.16;5049780;28;20045;-74
2023/05/20 01:09:55;;;;;;;11.23;5.20;;;;;;;-146.27;84.76;83053.16;5047570;28;20090;-74
2023/05/20 01:12:22;;;;;;;12.07;4.55;;;;;;;-146.27;85.07;83083.31;5051889;28;20119;-74
2023/05/20 01:14:49;;;;;;;18.50;4.93;;;;;;;-146.27;84.32;83097.38;5043789;28;20036;-74
2023/05/20 01:17:19;;;;;;;13.90;5.03;;;;;;;-146.27;85.01;83085.31;5047671;28;20481;-74
2023/05/20 01:19:47;;;;;;;12.43;5.00;;;;;;;-146.27;84.96;83017.00;5034389;28;20037;-74
2023/05/20 01:22:14;;;;;;;11.25;4.63;;;;;;;-146.27;85.07;83069.25;5032610;28;20031;-73
2023/05/20 01:24:44;;;;;;;11.07;4.43;;;;;;;-146.27;83.87;83035.09;5043896;28;20032;-74
2023/05/20 01:27:12;;;;;;;13.32;4.93;;;;;;;-146.27;84.61;83083.31;5050570;28;20094;-73
2023/05/20 01:29:38;;;;;;;11.20;4.78;;;;;;;-146.27;85.41;83047.16;5047101;28;20029;-74
2023/05/20 01:32:06;;;;;;;9.65;4.63;;;;;;;-146.27;84.04;83071.25;5045621;28;20035;-73
2023/05/20 01:34:34;;;;;;;17.58;4.50;;;;;;;-146.27;84.21;83069.25;5047927;28;20025;-74
2023/05/20 01:37:01;;;;;;;11.35;4.30;;;;;;;-146.27;84.74;83103.41;5045268;28;20032;-74
2023/05/20 01:39:28;;;;;;;12.20;4.85;;;;;;;-146.27;85.49;83093.34;5042458;28;20121;-73
2023/05/20 01:41:54;;;;;;;11.30;5.05;;;;;;;-146.27;85.78;83115.47;5035759;28;20029;-74
2023/05/20 01:44:20;;;;;;;11.57;4.68;;;;;;;-146.27;85.40;83083.31;5047559;28;20025;-74
2023/05/20 01:46:49;;;;;;;13.82;4.63;;;;;;;-146.27;85.42;83091.34;5035419;28;20101;-74
2023/05/20 01:49:15;;;;;;;10.75;4.53;;;;;;;-146.27;86.89;83075.28;5043674;28;20024;-74
2023/05/20 01:51:40;;;;;;;10.18;5.18;;;;;;;-146.27;85.50;83095.38;5043834;28;20052;-74
2023/05/20 01:54:06;;;;;;;13.60;4.97;;;;;;;-146.27;85.63;83111.44;5042019;28;20496;-73
2023/05/20 01:56:31;;;;;;;11.77;5.72;;;;;;;-146.27;85.39;83015.00;5033325;28;20536;-73
2023/05/20 01:58:56;;;;;;;9.07;4.40;;;;;;;-146.27;85.69;83103.41;5038971;28;20104;-75
2023/05/20 02:01:22;;;;;;;14.45;5.10;;;;;;;-146.27;86.29;83087.31;5046210;28;20047;-73
2023/05/20 02:03:47;;;;;;;13.38;4.82;;;;;;;-146.27;86.51;83111.44;5050631;28;20540;-73
2023/05/20 02:06:12;;;;;;;11.85;5.03;;;;;;;-146.27;86.35;83101.38;5050881;28;20036;-74
2023/05/20 02:08:38;;;;;;;10.35;5.22;;;;;;;-146.27;87.15;83139.56;5049936;28;20024;-74
2023/05/20 02:11:03;;;;;;;9.98;5.53;;;;;;;-146.27;88.02;83079.28;5049049;28;20586;-73
2023/05/20 02:13:28;;;;;;;9.05;4.65;;;;;;;-146.27;87.71;83121.47;5059614;28;20346;-73
2023/05/20 02:15:54;;;;;;;11.85;5.68;;;;;;;-146.27;87.83;83099.38;5045172;28;20090;-73
2023/05/20 02:18:19;;;;;;;9.80;5.15;;;;;;;-146.27;87.64;83133.53;5048730;28;20029;-73
2023/05/20 02:20:45;;;;;;;15.07;5.45;;;;;;;-146.27;87.92;83095.38;5043122;28;20036;-74
2023/05/20 02:23:10;;;;;;;11.27;5.07;;;;;;;-146.27;88.09;83121.47;5051021;28;20060;-74
2023/05/20 02:25:36;;;;;;;14.82;5.28;;;;;;;-146.27;88.40;83147.59;5043597;28;20021;-74
2023/05/20 02:28:04;;;;;;;12.93;5.43;;;;;;;-146.27;87.62;83155.63;5046655;28;20036;-73
2023/05/20 02:30:30;;;;;;;10.48;5.80;;;;;;;-146.27;88.02;83155.63;5041041;28;20036;-73
2023/05/20 02:32:56;;;;;;;14.88;5.28;;;;;;;-146.27;88.48;83155.63;5063236;28;20546;-74
2023/05/20 02:35:22;;;;;;;14.23;6.43;;;;;;;-146.27;88.78;83147.59;5042399;28;20030;-74
2023/05/20 02:37:47;;;;;;;17.35;5.63;;;;;;;-146.27;88.72;83147.59;5038341;28;20025;-74
2023/05/20 02:40:13;;;;;;;9.23;5.10;;;;;;;-146.27;88.71;83171.72;5050100;28;20025;-74
2023/05/20 02:42:38;;;;;;;12.88;6.15;;;;;;;-146.27;89.34;83135.53;5049291;28;20029;-74
2023/05/20 02:45:04;;;;;;;12.02;5.70;;;;;;;-146.27;88.89;83165.69;5050721;28;20120;-74
2023/05/20 02:47:29;;;;;;;16.38;5.43;;;;;;;-146.27;88.78;83131.53;5050927;28;20035;-74
2023/05/20 02:49:55;;;;;;;11.48;5.22;;;;;;;-146.27;89.24;83121.47;5045974;28;20041;-74
2023/05/20 02:52:20;;;;;;;12.88;5.68;;;;;;;-146.27;89.47;83163.69;5040043;28;20017;-73
2023/05/20 02:54:46;;;;;;;10.07;5.65;;;;;;;-146.27;89.56;83159.66;5039981;28;20075;-74
2023/05/20 02:57:11;;;;;;;15.45;6.88;;;;;;;-146.27;90.09;83189.78;5043901;28;20481;-73
2023/05/20 02:59:36;;;;;;;13.55;5.75;;;;;;;-146.27;89.94;83179.75;5038251;28;20029;-74
2023/05/20 03:02:02;;;;;;;12.90;6.03;;;;;;;-146.27;90.23;83139.56;5038201;28;20029;-74
2023/05/20 03:04:27;;;;;;;11.07;5.07;;;;;;;-146.27;91.57;83183.78;5040297;28;20045;-74
2023/05/20 03:06:52;;;;;;;10.20;5.55;;;;;;;-146.27;90.68;83147.59;5046026;28;20083;-74
2023/05/20 03:09:18;;;;;;;18.23;5.85;;;;;;;-146.27;90.52;83195.81;5040007;28;20040;-74
2023/05/20 03:11:44;;;;;;;14.13;5.63;;;;;;;-146.27;90.31;83167.69;5050193;28;20468;-73
2023/05/20 03:14:10;;;;;;;14.88;5.60;;;;;;;-146.27;90.81;83183.78;5049386;28;20033;-73
2023/05/20 03:16:35;;;;;;;11.18;5.10;;;;;;;-146.27;90.75;83187.78;5037660;28;20108;-73
2023/05/20 03:19:01;;;;;;;10.30;5.30;;;;;;;-146.27;90.66;83147.59;5049166;28;20036;-74
2023/05/20 03:21:27;;;;;;;14.68;5.32;;;;;;;-146.27;90.34;83149.63;5048708;28;20448;-74
2023/05/20 03:23:52;;;;;;;11.82;4.90;;;;;;;-146.27;89.92;83163.69;5042925;28;20027;-73
2023/05/20 03:26:17;;;;;;;8.80;4.93;;;;;;;-146.27;89.94;83183.78;5045878;28;20481;-73
2023/05/20 03:28:43;;;;;;;11.32;5.22;;;;;;;-146.27;90.12;83195.81;5047975;28;20438;-73
2023/05/20 03:31:08;;;;;;;14.20;5.80;;;;;;;-146.27;90.65;83139.56;5038682;28;20037;-73
2023/05/20 03:33:34;;;;;;;10.38;5.00;;;;;;;-146.27;90.59;83173.72;5050215;28;20150;-73
2023/05/20 03:35:59;;;;;;;14.98;6.07;;;;;;;-146.27;90.52;83179.75;5034480;28;20037;-74
2023/05/20 03:38:25;;;;;;;12.02;6.10;;;;;;;-146.27;91.14;83221.94;5035482;28;20056;-73
2023/05/20 03:40:51;;;;;;;11.35;5.75;;;;;;;-146.27;90.55;83199.84;5054008;28;20081;-73
2023/05/20 03:43:16;;;;;;;13.43;5.70;;;;;;;-146.27;91.53;83211.91;5054819;28;20362;-73
2023/05/20 03:45:41;;;;;;;15.13;5.95;;;;;;;-146.27;91.15;83227.97;5039820;28;20078;-73
2023/05/20 03:48:07;;;;;;;9.48;6.13;;;;;;;-146.27;91.63;83211.91;5061675;28;20031;-73
2023/05/20 03:50:32;;;;;;;10.80;5.97;;;;;;;-146.27;91.09;83203.88;5044220;28;20025;-74
2023/05/20 03:52:57;;;;;;;12.07;5.28;;;;;;;-146.27;91.30;83167.69;5062846;28;20594;-73
2023/05/20 03:55:23;;;;;;;19.33;6.07;;;;;;;-146.27;91.77;83195.81;5050887;28;20499;-74
2023/05/20 03:57:49;;;;;;;10.98;5.78;;;;;;;-146.27;92.07;83223.94;5050508;28;20504;-74
2023/05/20 04:00:15;;;;;;;14.32;6.22;;;;;;;-146.27;91.47;83232.00;5039390;28;20524;-74
2023/05/20 04:02:41;;;;;;;13.18;6.43;;;;;;;-146.27;92.63;83232.00;5050992;28;20115;-74
2023/05/20 04:05:07;;;;;;;13.95;6.30;;;;;;;-146.27;92.34;83203.88;5049304;28;20560;-74
2023/05/20 04:07:33;;;;;;;11.82;6.55;;;;;;;-146.27;92.49;83276.19;5049177;28;20029;-74
2023/05/20 04:09:58;;;;;;;18.15;7.47;;;;;;;-146.27;92.70;83256.09;5048098;28;20071;-75
2023/05/20 04:12:29;;;;;;;18.42;7.03;;;;;;;-146.27;93.17;83280.22;5057223;28;20547;-74
2023/05/20 04:14:57;;;;;;;14.77;6.63;;;;;;;-146.27;93.41;83268.16;5062958;28;20025;-74
2023/05/20 04:17:22;;;;;;;10.52;6.18;;;;;;;-146.27;93.34;83282.22;5047896;28;20053;-74
2023/05/20 04:19:47;;;;;;;11.98;6.57;;;;;;;-146.27;94.45;83229.97;5046445;28;20500;-71
2023/05/20 04:22:13;;;;;;;11.68;6.18;;;;;;;-146.27;94.36;83219.94;5049721;28;20392;-72
2023/05/20 04:24:38;;;;;;;15.18;6.78;;;;;;;-146.27;93.61;83227.97;5042478;28;20032;-72
2023/05/20 04:27:04;;;;;;;13.18;5.95;;;;;;;-146.27;93.24;83248.06;5044986;28;20056;-72
2023/05/20 04:29:33;;;;;;;10.70;6.20;;;;;;;-146.27;93.20;83207.88;5030542;28;20034;-72
2023/05/20 04:32:00;;;;;;;11.43;5.65;;;;;;;-146.27;93.95;83232.00;5033704;28;20531;-72
2023/05/20 04:34:28;;;;;;;13.60;6.38;;;;;;;-146.27;94.45;83242.03;5044716;28;20029;-72
2023/05/20 04:36:53;;;;;;;17.15;7.10;;;;;;;-146.27;94.36;83183.78;5049892;28;20495;-72
2023/05/20 04:39:19;;;;;;;15.68;6.75;;;;;;;-146.27;94.46;83227.97;5047859;28;20103;-71
2023/05/20 04:41:47;;;;;;;14.27;6.70;;;;;;;-146.27;95.02;83250.06;5035251;28;20047;-71
2023/05/20 04:44:12;;;;;;;9.00;6.43;;;;;;;-146.27;95.14;83199.84;5045256;28;20625;-72
2023/05/20 04:46:38;;;;;;;15.32;7.13;;;;;;;-146.27;95.76;83229.97;5048361;28;20116;-71
2023/05/20 04:49:04;;;;;;;18.48;7.63;;;;;;;-146.27;95.39;83234.00;5047267;28;20098;-72
2023/05/20 04:51:30;;;;;;;11.68;6.55;;;;;;;-146.27;95.99;83201.84;5049853;28;20036;-72
2023/05/20 04:53:55;;;;;;;13.05;7.28;;;;;;;-146.27;96.44;83256.09;5053332;28;20029;-71
2023/05/20 04:56:21;;;;;;;18.25;7.30;;;;;;;-146.27;95.76;83157.66;5052139;28;20101;-71
2023/05/20 04:58:46;;;;;;;11.15;6.35;;;;;;;-146.27;95.88;83159.66;5049955;28;20114;-72
2023/05/20 05:01:12;;;;;;;12.55;6.22;;;;;;;-146.27;95.19;83143.59;5042045;28;20021;-71
2023/05/20 05:03:37;;;;;;;14.35;6.47;;;;;;;-146.27;95.14;83103.41;5053066;28;20082;-72
2023/05/20 05:06:02;;;;;;;13.32;6.13;;;;;;;-146.27;94.96;83115.47;5051990;28;20037;-72
2023/05/20 05:08:27;;;;;;;12.23;6.60;;;;;;;-146.27;95.09;83131.53;5052394;28;20037;-71
2023/05/20 05:10:53;;;;;;;12.07;6.63;;;;;;;-146.27;95.77;83095.38;5044169;28;20052;-71
2023/05/20 05:13:18;;;;;;;12.02;6.38;;;;;;;-146.27;95.10;83107.41;5046432;28;20029;-72
2023/05/20 05:15:44;;;;;;;14.73;6.40;;;;;;;-146.27;95.24;83107.41;5048959;28;20515;-72
2023/05/20 05:18:09;;;;;;;12.73;6.18;;;;;;;-146.27;95.11;83067.25;5041946;28;20543;-71
2023/05/20 05:20:35;;;;;;;15.18;6.30;;;;;;;-146.27;95.15;83079.28;5041283;28;20032;-72
2023/05/20 05:23:00;;;;;;;10.43;5.55;;;;;;;-146.27;94.23;83103.41;5055216;28;20071;-71
2023/05/20 05:25:25;;;;;;;14.55;6.25;;;;;;;-146.27;94.56;83069.25;5052070;28;20025;-71
2023/05/20 05:27:51;;;;;;;16.23;6.45;;;;;;;-146.27;94.78;83119.47;5050812;28;20066;-71
2023/05/20 05:30:16;;;;;;;14.63;6.47;;;;;;;-146.27;94.91;83071.25;5051713;28;20120;-72
2023/05/20 05:32:42;;;;;;;11.82;5.90;;;;;;;-146.27;94.29;83055.19;5049145;28;20013;-72
2023/05/20 05:35:08;;;;;;;13.68;6.20;;;;;;;-146.27;94.24;83099.38;5050309;28;20163;-71
2023/05/20 05:37:33;;;;;;;14.93;6.60;;;;;;;-146.27;95.45;83095.38;5038034;28;20398;-72
2023/05/20 05:39:58;;;;;;;16.10;7.20;;;;;;;-146.27;94.85;83063.22;5062921;28;20136;-72
2023/05/20 05:42:24;;;;;;;10.98;6.63;;;;;;;-146.27;94.83;83095.38;5045151;28;20041;-72
2023/05/20 05:44:50;;;;;;;14.73;6.88;;;;;;;-146.27;95.38;83087.31;5041864;28;20056;-71
2023/05/20 05:47:16;;;;;;;13.75;7.22;;;;;;;-146.27;95.17;83049.16;5051621;28;20469;-73
2023/05/20 05:49:41;;;;;;;15.25;7.20;;;;;;;-146.27;95.84;83059.19;5040814;28;20087;-66
2023/05/20 05:52:06;;;;;;;13.15;6.18;;;;;;;-146.27;95.46;83025.03;5049631;28;20547;-69
2023/05/20 05:54:32;;;;;;;15.52;6.80;;;;;;;-146.27;94.67;83041.13;5051745;28;20048;-70
2023/05/20 05:56:57;;;;;;;14.55;6.90;;;;;;;-146.27;95.26;83027.06;5048851;28;20401;-70
2023/05/20 05:59:23;;;;;;;10.43;6.55;;;;;;;-146.27;95.24;83039.09;5053342;28;20546;-70
2023/05/20 06:01:48;;;;;;;12.63;6.18;;;;;;;-146.27;94.41;83000.94;5044059;28;20080;-73
2023/05/20 06:04:13;;;;;;;14.05;5.70;;;;;;;-146.27;94.86;83023.03;5045508;28;20033;-71
2023/05/20 06:06:40;;;;;;;13.55;6.80;;;;;;;-146.27;94.02;82990.88;5050303;28;20062;-71
2023/05/20 06:09:05;;;;;;;12.98;7.13;;;;;;;-146.27;94.36;82958.75;5050229;28;20068;-71
2023/05/20 06:11:31;;;;;;;14.07;6.65;;;;;;;-146.27;93.57;82948.69;5049184;28;20508;-71
2023/05/20 06:13:56;;;;;;;13.98;6.13;;;;;;;-146.27;93.34;82970.81;5049684;28;20484;-72
2023/05/20 06:16:21;;;;;;;9.85;5.63;;;;;;;-146.27;92.82;82930.63;5050884;28;20032;-71
2023/05/20 06:18:49;;;;;;;9.02;5.03;;;;;;;-146.27;93.07;82924.59;5050903;28;20539;-70
2023/05/20 06:21:14;;;;;;;8.07;4.65;;;;;;;-146.27;92.42;82902.50;5046658;28;20074;-71
2023/05/20 06:23:40;;;;;;;9.50;4.45;;;;;;;-146.27;91.21;82922.59;5055899;28;20415;-70
2023/05/20 06:26:05;;;;;;;10.80;4.70;;;;;;;-146.27;90.00;82878.38;5050480;28;20037;-72
2023/05/20 06:28:30;;;;;;;8.95;4.25;;;;;;;-146.27;89.76;82824.13;5062714;28;20072;-69
2023/05/20 06:30:56;;;;;;;8.40;3.97;;;;;;;-146.27;87.61;82822.13;5049704;28;20025;-69
2023/05/20 06:33:27;;;;;;;7.82;4.40;;;;;;;-146.27;87.02;82773.91;5039672;28;20113;-70
2023/05/20 06:35:55;;;;;;;12.25;3.97;;;;;;;-146.27;87.26;82777.94;5032534;28;20141;-66
2023/05/20 06:38:20;;;;;;;10.25;4.20;;;;;;;-146.27;85.78;82832.19;5035092;28;20100;-67
2023/05/20 06:40:47;;;;;;;5.93;3.63;;;;;;;-146.27;85.00;82773.91;5043502;28;20191;-67
2023/05/20 06:43:13;;;;;;;5.50;3.45;;;;;;;-146.27;84.56;82787.97;5055603;28;20468;-66
2023/05/20 06:45:38;;;;;;;7.35;4.57;;;;;;;-146.27;84.75;82749.81;5066123;28;20035;-68
2023/05/20 06:48:04;;;;;;;5.53;3.78;;;;;;;-146.27;85.32;82771.91;5059725;28;20033;-68
2023/05/20 06:50:29;;;;;;;12.10;3.95;;;;;;;-146.27;84.37;82713.66;5045322;28;20028;-67
2023/05/20 06:52:55;;;;;;;6.35;3.70;;;;;;;-146.27;83.58;82709.63;5046730;28;20025;-68
2023/05/20 06:55:20;;;;;;;6.55;3.55;;;;;;;-146.27;82.84;82717.66;5049575;28;20039;-74
2023/05/20 06:57:45;;;;;;;6.82;3.35;;;;;;;-146.27;82.00;82667.44;5040389;28;20077;-70
2023/05/20 07:00:12;;;;;;;9.18;4.10;;;;;;;-146.27;81.75;82685.50;5044709;28;20075;-67
2023/05/20 07:02:39;;;;;;;5.88;3.70;;;;;;;-146.27;80.86;82681.50;5048471;28;20057;-69
2023/05/20 07:05:05;;;;;;;7.55;3.72;;;;;;;-146.27;79.47;82627.25;5040522;28;20057;-71
2023/05/20 07:07:31;;;;;;;11.07;3.63;;;;;;;-146.27;79.20;82645.34;5049934;28;20067;-70
2023/05/20 07:09:56;;;;;;;9.65;4.00;;;;;;;-146.27;79.25;82627.25;5046835;28;20064;-71
2023/05/20 07:12:22;;;;;;;5.88;3.22;;;;;;;-146.27;78.71;82621.22;5049898;28;20055;-68
2023/05/20 07:14:47;;;;;;;12.13;4.35;;;;;;;-146.27;79.72;82607.16;5050434;28;20020;-69
2023/05/20 07:17:12;;;;;;;6.25;3.55;;;;;;;-146.27;80.02;82595.13;5050870;28;20087;-70
2023/05/20 07:19:38;;;;;;;8.52;3.60;;;;;;;-146.27;79.93;82550.91;5047550;28;20025;-70
2023/05/20 07:22:03;;;;;;;5.80;3.10;;;;;;;-146.27;79.59;82540.88;5049454;28;20017;-69
2023/05/20 07:24:28;;;;;;;15.23;3.75;;;;;;;-146.27;79.07;82579.03;5034877;28;20029;-70
2023/05/20 07:26:54;;;;;;;6.10;3.47;;;;;;;-146.27;79.36;82524.81;5048955;28;20057;-68
2023/05/20 07:29:20;;;;;;;7.45;3.50;;;;;;;-146.27;77.84;82504.72;5049131;28;20037;-69
2023/05/20 07:31:45;;;;;;;6.15;4.03;;;;;;;-146.27;77.69;82538.88;5052453;28;20025;-69
2023/05/20 07:34:10;;;;;;;10.10;4.38;;;;;;;-146.27;77.44;82502.72;5053509;28;20111;-71
2023/05/20 07:36:36;;;;;;;5.78;3.65;;;;;;;-146.27;78.13;82496.69;5043470;28;20095;-70
2023/05/20 07:39:02;;;;;;;10.55;4.00;;;;;;;-146.27;77.67;82504.72;5047270;28;20420;-69
2023/05/20 07:41:27;;;;;;;10.10;3.60;;;;;;;-146.27;76.17;82488.66;5049921;28;20080;-71
2023/05/20 07:43:52;;;;;;;6.63;3.45;;;;;;;-146.27;76.30;82408.28;5062920;28;20476;-70
2023/05/20 07:46:18;;;;;;;11.40;3.33;;;;;;;-146.27;75.88;82412.31;5033895;28;20064;-70
2023/05/20 07:48:44;;;;;;;6.88;3.60;;;;;;;-146.27;76.05;82364.09;5041974;28;20048;-70
2023/05/20 07:51:10;;;;;;;5.53;3.10;;;;;;;-146.27;76.00;82366.09;5061255;28;20110;-70
2023/05/20 07:53:36;;;;;;;7.63;3.63;;;;;;;-146.27;74.84;82352.03;5048092;28;20059;-71
2023/05/20 07:56:01;;;;;;;5.65;3.50;;;;;;;-146.27;75.15;82299.81;5048235;28;20453;-70
2023/05/20 07:58:30;;;;;;;9.40;3.72;;;;;;;-146.27;76.01;82311.88;5048275;28;20025;-71
2023/05/20 08:00:56;;;;;;;5.75;2.88;;;;;;;-146.27;71.97;82273.72;5039297;28;20071;-69
2023/05/20 08:03:22;;;;;;;9.93;3.20;;;;;;;-146.27;69.90;82307.84;5043730;28;20021;-69
2023/05/20 08:05:48;;;;;;;9.57;2.80;;;;;;;-146.27;70.44;82261.66;5048203;28;20025;-68
2023/05/20 08:08:14;;;;;;;9.02;2.80;;;;;;;-146.27;71.06;82203.41;5050394;28;20067;-68
2023/05/20 08:10:40;;;;;;;7.18;3.10;;;;;;;-146.27;69.21;82209.44;5047830;28;20686;-69
2023/05/20 08:13:05;;;;;;;4.93;3.20;;;;;;;-146.27;68.62;82199.38;5049464;28;20021;-69
2023/05/20 08:15:31;;;;;;;8.75;3.22;;;;;;;-146.27;67.74;82159.22;5048328;28;20500;-68
2023/05/20 08:17:56;;;;;;;8.00;2.90;;;;;;;-146.27;67.12;82183.31;5047642;28;20024;-67
2023/05/20 08:20:21;;;;;;;5.40;3.10;;;;;;;-146.27;67.36;82139.13;5047057;28;20108;-67
2023/05/20 08:22:47;;;;;;;3.83;2.53;;;;;;;-146.27;66.49;82155.19;5055453;28;20027;-72
2023/05/20 08:25:13;;;;;;;6.90;2.60;;;;;;;-146.27;66.65;82098.94;5051093;28;20424;-68
2023/05/20 08:27:38;;;;;;;4.93;2.80;;;;;;;-146.27;66.97;82068.81;5042658;28;20021;-68
2023/05/20 08:30:06;;;;;;;4.93;2.60;;;;;;;-146.27;63.82;82054.75;5051860;28;20047;-69
2023/05/20 08:32:32;;;;;;;4.20;2.67;;;;;;;-146.27;64.01;82024.63;5038715;28;20523;-69
2023/05/20 08:35:00;;;;;;;8.90;2.78;;;;;;;-146.27;63.83;82016.59;5050542;28;20033;-71
2023/05/20 08:37:25;;;;;;;4.55;2.60;;;;;;;-146.27;62.96;82018.59;5055166;28;20094;-70
2023/05/20 08:39:51;;;;;;;7.80;2.67;;;;;;;-146.27;61.41;81982.44;5052798;28;20020;-70
2023/05/20 08:42:21;;;;;;;11.00;2.45;;;;;;;-146.27;60.34;81950.31;5036647;28;20029;-70
2023/05/20 08:44:47;;;;;;;5.95;2.38;;;;;;;-146.27;59.78;81966.38;5046320;28;20649;-70
2023/05/20 08:47:12;;;;;;;3.75;2.15;;;;;;;-146.27;59.52;81954.31;5046428;28;20032;-73
2023/05/20 08:49:38;;;;;;;4.85;2.35;;;;;;;-146.27;58.62;81910.13;5037114;28;20472;-70
2023/05/20 08:52:04;;;;;;;6.50;2.92;;;;;;;-146.27;58.72;81924.19;5040879;28;20028;-70
2023/05/20 08:54:44;;;;;;;7.40;2.60;;;;;;;-146.27;57.40;81849.88;5052893;28;20047;-69
2023/05/20 08:57:12;;;;;;;7.57;2.53;;;;;;;-146.27;57.86;81849.88;5040859;28;20466;-71
2023/05/20 08:59:42;;;;;;;5.03;2.40;;;;;;;-146.27;55.03;81849.88;5034041;28;20472;-71
2023/05/20 09:02:09;;;;;;;3.25;1.80;;;;;;;-146.27;52.94;81853.91;5048644;28;20041;-71
2023/05/20 09:04:34;;;;;;;4.22;2.58;;;;;;;-146.27;55.28;81821.75;5034464;28;20044;-72
2023/05/20 09:07:00;;;;;;;10.68;2.05;;;;;;;-146.27;56.31;81849.88;5039324;28;20029;-70
2023/05/20 09:09:25;;;;;;;2.83;1.75;;;;;;;-146.27;55.86;81793.66;5053184;28;20048;-70
2023/05/20 09:11:50;;;;;;;22.60;3.42;;;;;;;-146.27;51.59;81733.38;5051843;28;20025;-70
2023/05/20 09:14:16;;;;;;;6.32;2.30;;;;;;;-146.27;52.31;81745.44;5051550;28;20021;-72
2023/05/20 09:16:41;;;;;;;4.85;1.90;;;;;;;-146.27;51.50;81743.44;5043904;28;20025;-70
2023/05/20 09:19:08;;;;;;;5.00;2.40;;;;;;;-146.27;51.54;81741.41;5063734;28;20028;-69
2023/05/20 09:21:34;;;;;;;3.58;2.25;;;;;;;-146.27;50.05;81713.31;5056644;28;20074;-69
2023/05/20 09:24:01;;;;;;;4.13;2.20;;;;;;;-146.27;48.65;81661.09;5052029;28;20033;-71
2023/05/20 09:26:27;;;;;;;4.45;2.55;;;;;;;-146.27;51.06;81663.09;5050495;28;20127;-71
2023/05/20 09:28:55;;;;;;;7.05;2.22;;;;;;;-146.27;52.12;81612.88;5046685;28;20473;-68
2023/05/20 09:31:24;;;;;;;6.45;2.67;;;;;;;-146.27;51.76;81580.75;5046212;28;20025;-71
2023/05/20 09:33:51;;;;;;;3.28;2.00;;;;;;;-146.27;50.43;81562.66;5043389;28;20025;-72
2023/05/20 09:36:19;;;;;;;2.35;1.83;;;;;;;-146.27;51.42;81576.72;5054408;28;20579;-70
2023/05/20 09:38:46;;;;;;;3.78;1.77;;;;;;;-146.27;52.41;81528.53;5038874;28;20025;-69
2023/05/20 09:41:12;;;;;;;3.40;1.90;;;;;;;-146.27;48.53;81490.38;5044157;28;20040;-69
2023/05/20 09:43:41;;;;;;;5.30;1.98;;;;;;;-146.27;47.12;81468.28;5063626;28;20035;-70
2023/05/20 09:46:07;;;;;;;4.00;1.88;;;;;;;-146.27;45.28;81464.25;5060101;28;20075;-71
2023/05/20 09:48:36;;;;;;;5.32;1.63;;;;;;;-146.27;46.37;81436.16;5037964;28;20041;-69
2023/05/20 09:51:03;;;;;;;9.30;2.20;;;;;;;-146.27;46.56;81373.88;5041206;28;20140;-69
2023/05/20 09:53:28;;;;;;;4.93;2.33;;;;;;;-146.27;47.45;81430.13;5043020;28;20060;-70
2023/05/20 09:55:54;;;;;;;3.35;1.85;;;;;;;-146.27;45.78;81373.88;5051780;28;20451;-71
2023/05/20 09:58:21;;;;;;;4.28;1.75;;;;;;;-146.27;45.18;81466.28;5052176;28;20052;-72
2023/05/20 10:00:47;;;;;;;4.03;1.90;;;;;;;-146.27;45.00;81335.72;5047504;28;20029;-71
2023/05/20 10:03:13;;;;;;;3.83;1.50;;;;;;;-146.27;43.40;81319.66;5044537;28;20036;-70
2023/05/20 10:05:43;;;;;;;4.90;1.70;;;;;;;-146.27;45.99;81283.50;5051114;28;20029;-69
2023/05/20 10:08:11;;;;;;;3.78;1.75;;;;;;;-146.27;45.33;81295.56;5032254;28;20032;-70
2023/05/20 10:11:00;;;;;;;3.92;2.15;;;;;;;-146.27;43.12;81291.53;5050987;28;20530;-69
2023/05/20 10:14:00;;;;;;;5.97;1.70;;;;;;;-146.27;44.05;81267.44;5044469;28;20052;-71
2023/05/20 10:16:50;;;;;;;5.35;1.73;;;;;;;-146.27;44.34;81207.19;5040603;28;20060;-68
2023/05/20 10:19:31;;;;;;;8.43;1.90;;;;;;;-146.27;43.97;81183.09;5050943;28;20032;-69
2023/05/20 10:22:00;;;;;;;6.15;1.83;;;;;;;-146.27;43.45;81191.13;5031532;28;20535;-69
2023/05/20 10:24:31;;;;;;;4.10;1.90;;;;;;;-146.27;42.46;81231.31;5053608;28;20384;-70
2023/05/20 10:26:59;;;;;;;2.85;1.88;;;;;;;-146.27;43.30;81291.53;5035081;28;20033;-72
2023/05/20 10:29:24;;;;;;;4.25;1.73;;;;;;;-146.27;43.04;81235.31;5050930;28;20021;-68
2023/05/20 10:31:51;;;;;;;3.22;2.00;;;;;;;-146.27;42.60;81175.06;5046439;28;20056;-70
2023/05/20 10:34:18;;;;;;;8.80;2.05;;;;;;;-146.27;42.13;81239.34;5050878;28;20429;-69
2023/05/20 10:36:52;;;;;;;4.82;1.90;;;;;;;-146.27;43.39;81349.78;5043988;28;20021;-68
2023/05/20 10:39:18;;;;;;;4.82;1.60;;;;;;;-146.27;44.02;81395.97;5041987;28;20462;-68
2023/05/20 10:41:44;;;;;;;3.70;2.38;;;;;;;-146.27;43.55;81327.69;5058795;28;20025;-69
2023/05/20 10:44:10;;;;;;;9.40;1.85;;;;;;;-146.27;43.49;81237.31;5070874;28;20043;-70
2023/05/20 10:46:36;;;;;;;6.18;1.90;;;;;;;-146.27;43.32;81239.34;5055279;28;20032;-71
2023/05/20 10:49:02;;;;;;;6.25;1.90;;;;;;;-146.27;42.54;81187.13;5050333;28;20035;-68
2023/05/20 10:51:28;;;;;;;5.13;1.67;;;;;;;-146.27;42.87;81175.06;5044353;28;20156;-68
2023/05/20 10:53:55;;;;;;;4.40;1.70;;;;;;;-146.27;41.46;81088.72;5050612;28;20035;-69
2023/05/20 10:56:25;;;;;;;6.57;1.80;;;;;;;-146.27;39.88;81026.47;5048987;28;20032;-70
2023/05/20 10:58:53;;;;;;;2.38;1.40;;;;;;;-146.27;40.62;80956.19;5047255;28;20052;-72
2023/05/20 11:01:26;;;;;;;3.15;1.30;;;;;;;-146.27;41.27;80918.03;5047972;28;20108;-70
2023/05/20 11:03:54;;;;;;;7.72;1.40;;;;;;;-146.27;41.69;80885.91;5050579;28;20086;-71
2023/05/20 11:06:26;;;;;;;2.08;1.67;;;;;;;-146.27;39.02;80869.84;5047817;28;20061;-74
2023/05/20 11:08:52;;;;;;;3.70;1.80;;;;;;;-146.27;39.89;80821.63;5051333;28;20032;-74